sensor_id;sensor_type;location;lat;lon;timestamp;P1;durP1;ratioP1;P2;durP2;ratioP2
25868;SDS011;13688;53.154;18.136;2023-07-31T00:01:31;8.93;;;2.10;;
25868;SDS011;13688;53.154;18.136;2023-07-31T00:06:54;4.57;;;2.10;;
25868;SDS011;13688;53.154;18.136;2023-07-31T00:12:16;2.53;;;1.67;;
25868;SDS011;13688;53.154;18.136;2023-07-31T00:17:39;4.72;;;1.87;;
25868;SDS011;13688;53.154;18.136;2023-07-31T00:23:02;5.83;;;1.80;;
25868;SDS011;13688;53.154;18.136;2023-07-31T00:28:24;2.85;;;1.90;;
25868;SDS011;13688;53.154;18.136;2023-07-31T00:33:46;3.73;;;2.10;;
25868;SDS011;13688;53.154;18.136;2023-07-31T00:39:09;3.85;;;2.12;;
25868;SDS011;13688;53.154;18.136;2023-07-31T00:44:33;5.63;;;2.43;;
25868;SDS011;13688;53.154;18.136;2023-07-31T00:49:55;4.80;;;2.47;;
25868;SDS011;13688;53.154;18.136;2023-07-31T00:55:18;7.23;;;2.30;;
25868;SDS011;13688;53.154;18.136;2023-07-31T01:00:41;3.10;;;1.80;;
25868;SDS011;13688;53.154;18.136;2023-07-31T01:06:17;5.28;;;2.02;;
25868;SDS011;13688;53.154;18.136;2023-07-31T01:11:48;3.00;;;1.93;;
25868;SDS011;13688;53.154;18.136;2023-07-31T01:17:17;3.90;;;1.92;;
25868;SDS011;13688;53.154;18.136;2023-07-31T01:28:55;7.10;;;2.10;;
25868;SDS011;13688;53.154;18.136;2023-07-31T01:34:22;3.65;;;2.27;;
25868;SDS011;13688;53.154;18.136;2023-07-31T01:39:45;3.25;;;2.08;;
25868;SDS011;13688;53.154;18.136;2023-07-31T01:45:08;4.10;;;2.33;;
25868;SDS011;13688;53.154;18.136;2023-07-31T01:50:31;3.55;;;2.12;;
25868;SDS011;13688;53.154;18.136;2023-07-31T01:55:54;3.70;;;2.10;;
25868;SDS011;13688;53.154;18.136;2023-07-31T02:01:16;5.03;;;2.10;;
25868;SDS011;13688;53.154;18.136;2023-07-31T02:06:39;5.20;;;2.23;;
25868;SDS011;13688;53.154;18.136;2023-07-31T02:12:02;5.77;;;2.60;;
25868;SDS011;13688;53.154;18.136;2023-07-31T02:17:25;5.90;;;2.30;;
25868;SDS011;13688;53.154;18.136;2023-07-31T02:22:47;4.70;;;2.10;;
25868;SDS011;13688;53.154;18.136;2023-07-31T02:28:10;5.70;;;2.10;;
25868;SDS011;13688;53.154;18.136;2023-07-31T02:33:33;3.90;;;2.17;;
25868;SDS011;13688;53.154;18.136;2023-07-31T02:38:56;5.20;;;2.20;;
25868;SDS011;13688;53.154;18.136;2023-07-31T02:44:18;6.20;;;2.47;;
25868;SDS011;13688;53.154;18.136;2023-07-31T02:49:40;5.92;;;2.45;;
25868;SDS011;13688;53.154;18.136;2023-07-31T02:55:03;5.30;;;2.25;;
25868;SDS011;13688;53.154;18.136;2023-07-31T03:00:26;6.78;;;2.90;;
25868;SDS011;13688;53.154;18.136;2023-07-31T03:05:50;3.25;;;2.42;;
25868;SDS011;13688;53.154;18.136;2023-07-31T03:11:12;3.62;;;2.27;;
25868;SDS011;13688;53.154;18.136;2023-07-31T03:16:35;5.30;;;2.40;;
25868;SDS011;13688;53.154;18.136;2023-07-31T03:21:58;4.07;;;2.33;;
25868;SDS011;13688;53.154;18.136;2023-07-31T03:27:21;3.70;;;2.52;;
25868;SDS011;13688;53.154;18.136;2023-07-31T03:32:43;4.97;;;2.52;;
25868;SDS011;13688;53.154;18.136;2023-07-31T03:38:06;4.80;;;2.10;;
25868;SDS011;13688;53.154;18.136;2023-07-31T03:43:28;4.47;;;2.00;;
25868;SDS011;13688;53.154;18.136;2023-07-31T03:48:51;6.33;;;2.40;;
25868;SDS011;13688;53.154;18.136;2023-07-31T03:54:13;5.12;;;2.42;;
25868;SDS011;13688;53.154;18.136;2023-07-31T03:59:36;4.10;;;2.50;;
25868;SDS011;13688;53.154;18.136;2023-07-31T04:04:58;10.38;;;2.55;;
25868;SDS011;13688;53.154;18.136;2023-07-31T04:10:21;5.60;;;2.70;;
25868;SDS011;13688;53.154;18.136;2023-07-31T04:15:47;3.85;;;2.40;;
25868;SDS011;13688;53.154;18.136;2023-07-31T04:21:07;5.97;;;2.50;;
25868;SDS011;13688;53.154;18.136;2023-07-31T04:26:29;4.85;;;2.30;;
25868;SDS011;13688;53.154;18.136;2023-07-31T04:31:52;6.92;;;2.20;;
25868;SDS011;13688;53.154;18.136;2023-07-31T04:37:15;7.40;;;2.60;;
25868;SDS011;13688;53.154;18.136;2023-07-31T04:42:37;3.87;;;2.05;;
25868;SDS011;13688;53.154;18.136;2023-07-31T04:47:59;7.30;;;2.30;;
25868;SDS011;13688;53.154;18.136;2023-07-31T04:53:22;4.55;;;2.55;;
25868;SDS011;13688;53.154;18.136;2023-07-31T04:58:44;5.83;;;2.27;;
25868;SDS011;13688;53.154;18.136;2023-07-31T05:04:07;4.65;;;2.25;;
25868;SDS011;13688;53.154;18.136;2023-07-31T05:09:30;5.55;;;2.30;;
25868;SDS011;13688;53.154;18.136;2023-07-31T05:14:52;6.20;;;2.20;;
25868;SDS011;13688;53.154;18.136;2023-07-31T05:20:15;7.72;;;2.05;;
25868;SDS011;13688;53.154;18.136;2023-07-31T05:25:37;7.53;;;2.72;;
25868;SDS011;13688;53.154;18.136;2023-07-31T05:31:01;7.85;;;1.90;;
25868;SDS011;13688;53.154;18.136;2023-07-31T05:36:24;4.97;;;2.05;;
25868;SDS011;13688;53.154;18.136;2023-07-31T05:41:47;6.30;;;2.02;;
25868;SDS011;13688;53.154;18.136;2023-07-31T05:47:09;3.17;;;2.08;;
25868;SDS011;13688;53.154;18.136;2023-07-31T05:52:32;4.33;;;2.05;;
25868;SDS011;13688;53.154;18.136;2023-07-31T05:57:55;4.62;;;1.98;;
25868;SDS011;13688;53.154;18.136;2023-07-31T06:03:17;6.60;;;2.52;;
25868;SDS011;13688;53.154;18.136;2023-07-31T06:08:40;5.75;;;2.05;;
25868;SDS011;13688;53.154;18.136;2023-07-31T06:14:02;7.10;;;2.12;;
25868;SDS011;13688;53.154;18.136;2023-07-31T06:19:25;9.08;;;2.15;;
25868;SDS011;13688;53.154;18.136;2023-07-31T06:24:47;6.30;;;2.00;;
25868;SDS011;13688;53.154;18.136;2023-07-31T06:30:09;3.75;;;1.65;;
25868;SDS011;13688;53.154;18.136;2023-07-31T06:35:33;6.58;;;2.02;;
25868;SDS011;13688;53.154;18.136;2023-07-31T06:40:55;4.95;;;2.05;;
25868;SDS011;13688;53.154;18.136;2023-07-31T06:46:17;6.15;;;2.00;;
25868;SDS011;13688;53.154;18.136;2023-07-31T06:51:41;5.72;;;2.33;;
25868;SDS011;13688;53.154;18.136;2023-07-31T06:57:04;7.25;;;1.82;;
25868;SDS011;13688;53.154;18.136;2023-07-31T07:02:26;5.58;;;2.00;;
25868;SDS011;13688;53.154;18.136;2023-07-31T07:07:51;6.70;;;1.62;;
25868;SDS011;13688;53.154;18.136;2023-07-31T07:13:13;3.00;;;1.70;;
25868;SDS011;13688;53.154;18.136;2023-07-31T07:18:35;4.47;;;1.92;;
25868;SDS011;13688;53.154;18.136;2023-07-31T07:23:59;5.97;;;2.25;;
25868;SDS011;13688;53.154;18.136;2023-07-31T07:29:22;4.65;;;1.77;;
25868;SDS011;13688;53.154;18.136;2023-07-31T07:34:44;4.22;;;1.55;;
25868;SDS011;13688;53.154;18.136;2023-07-31T07:40:08;3.92;;;1.80;;
25868;SDS011;13688;53.154;18.136;2023-07-31T07:45:31;3.33;;;1.82;;
25868;SDS011;13688;53.154;18.136;2023-07-31T07:50:53;4.10;;;2.17;;
25868;SDS011;13688;53.154;18.136;2023-07-31T07:56:16;8.30;;;2.00;;
25868;SDS011;13688;53.154;18.136;2023-07-31T08:01:41;4.97;;;2.12;;
25868;SDS011;13688;53.154;18.136;2023-07-31T08:07:03;5.92;;;2.00;;
25868;SDS011;13688;53.154;18.136;2023-07-31T08:12:29;7.97;;;1.77;;
25868;SDS011;13688;53.154;18.136;2023-07-31T08:17:52;6.15;;;1.67;;
25868;SDS011;13688;53.154;18.136;2023-07-31T08:23:15;9.35;;;1.52;;
25868;SDS011;13688;53.154;18.136;2023-07-31T08:28:38;5.62;;;1.92;;
25868;SDS011;13688;53.154;18.136;2023-07-31T08:34:01;7.90;;;2.33;;
25868;SDS011;13688;53.154;18.136;2023-07-31T08:39:23;9.40;;;1.85;;
25868;SDS011;13688;53.154;18.136;2023-07-31T08:44:46;6.00;;;1.80;;
25868;SDS011;13688;53.154;18.136;2023-07-31T08:50:14;9.25;;;2.10;;
25868;SDS011;13688;53.154;18.136;2023-07-31T08:55:38;4.33;;;1.62;;
25868;SDS011;13688;53.154;18.136;2023-07-31T09:01:04;4.08;;;1.57;;
25868;SDS011;13688;53.154;18.136;2023-07-31T09:06:29;4.55;;;1.60;;
25868;SDS011;13688;53.154;18.136;2023-07-31T09:11:53;7.25;;;1.75;;
25868;SDS011;13688;53.154;18.136;2023-07-31T09:17:16;7.10;;;1.42;;
25868;SDS011;13688;53.154;18.136;2023-07-31T09:22:48;5.30;;;1.75;;
25868;SDS011;13688;53.154;18.136;2023-07-31T09:28:20;4.62;;;1.32;;
25868;SDS011;13688;53.154;18.136;2023-07-31T09:33:54;6.22;;;1.80;;
25868;SDS011;13688;53.154;18.136;2023-07-31T09:39:12;7.40;;;1.62;;
25868;SDS011;13688;53.154;18.136;2023-07-31T09:44:39;7.55;;;2.02;;
25868;SDS011;13688;53.154;18.136;2023-07-31T09:50:08;4.53;;;1.70;;
25868;SDS011;13688;53.154;18.136;2023-07-31T09:55:34;4.62;;;1.80;;
25868;SDS011;13688;53.154;18.136;2023-07-31T10:00:58;4.20;;;1.90;;
25868;SDS011;13688;53.154;18.136;2023-07-31T10:06:23;5.70;;;2.20;;
25868;SDS011;13688;53.154;18.136;2023-07-31T10:11:51;5.53;;;2.60;;
25868;SDS011;13688;53.154;18.136;2023-07-31T10:17:14;5.50;;;2.62;;
25868;SDS011;13688;53.154;18.136;2023-07-31T10:22:38;5.70;;;2.45;;
25868;SDS011;13688;53.154;18.136;2023-07-31T10:28:01;5.33;;;1.98;;
25868;SDS011;13688;53.154;18.136;2023-07-31T10:33:25;10.53;;;2.45;;
25868;SDS011;13688;53.154;18.136;2023-07-31T10:38:48;9.28;;;2.75;;
25868;SDS011;13688;53.154;18.136;2023-07-31T10:44:16;5.87;;;2.50;;
25868;SDS011;13688;53.154;18.136;2023-07-31T10:49:38;5.97;;;2.37;;
25868;SDS011;13688;53.154;18.136;2023-07-31T10:55:15;9.50;;;2.83;;
25868;SDS011;13688;53.154;18.136;2023-07-31T11:00:44;9.33;;;2.65;;
25868;SDS011;13688;53.154;18.136;2023-07-31T11:06:09;8.53;;;2.80;;
25868;SDS011;13688;53.154;18.136;2023-07-31T11:11:32;6.45;;;3.37;;
25868;SDS011;13688;53.154;18.136;2023-07-31T11:16:56;6.95;;;2.80;;
25868;SDS011;13688;53.154;18.136;2023-07-31T11:22:21;7.12;;;2.65;;
25868;SDS011;13688;53.154;18.136;2023-07-31T11:27:45;6.90;;;2.47;;
25868;SDS011;13688;53.154;18.136;2023-07-31T11:33:11;7.87;;;2.10;;
25868;SDS011;13688;53.154;18.136;2023-07-31T11:38:34;6.78;;;2.15;;
25868;SDS011;13688;53.154;18.136;2023-07-31T11:44:00;4.95;;;1.62;;
25868;SDS011;13688;53.154;18.136;2023-07-31T11:49:25;6.85;;;1.70;;
25868;SDS011;13688;53.154;18.136;2023-07-31T11:54:48;4.28;;;1.80;;
25868;SDS011;13688;53.154;18.136;2023-07-31T12:00:14;6.37;;;2.15;;
25868;SDS011;13688;53.154;18.136;2023-07-31T12:05:38;3.90;;;1.82;;
25868;SDS011;13688;53.154;18.136;2023-07-31T12:11:03;7.03;;;1.80;;
25868;SDS011;13688;53.154;18.136;2023-07-31T12:16:28;6.12;;;2.02;;
25868;SDS011;13688;53.154;18.136;2023-07-31T12:21:54;6.83;;;2.02;;
25868;SDS011;13688;53.154;18.136;2023-07-31T12:27:23;3.13;;;1.70;;
25868;SDS011;13688;53.154;18.136;2023-07-31T12:32:48;2.58;;;1.47;;
25868;SDS011;13688;53.154;18.136;2023-07-31T12:38:14;4.53;;;1.60;;
25868;SDS011;13688;53.154;18.136;2023-07-31T12:43:38;2.95;;;1.60;;
25868;SDS011;13688;53.154;18.136;2023-07-31T12:49:02;3.40;;;1.30;;
25868;SDS011;13688;53.154;18.136;2023-07-31T12:54:24;2.05;;;1.30;;
25868;SDS011;13688;53.154;18.136;2023-07-31T13:00:00;2.80;;;1.60;;
25868;SDS011;13688;53.154;18.136;2023-07-31T13:05:23;5.73;;;1.47;;
25868;SDS011;13688;53.154;18.136;2023-07-31T13:11:02;4.87;;;1.30;;
25868;SDS011;13688;53.154;18.136;2023-07-31T13:16:24;3.27;;;1.60;;
25868;SDS011;13688;53.154;18.136;2023-07-31T13:21:47;2.40;;;1.40;;
25868;SDS011;13688;53.154;18.136;2023-07-31T13:27:10;4.57;;;1.63;;
25868;SDS011;13688;53.154;18.136;2023-07-31T13:32:32;4.30;;;1.70;;
25868;SDS011;13688;53.154;18.136;2023-07-31T13:37:55;4.22;;;2.00;;
25868;SDS011;13688;53.154;18.136;2023-07-31T13:43:18;5.67;;;2.20;;
25868;SDS011;13688;53.154;18.136;2023-07-31T13:48:40;7.13;;;2.13;;
25868;SDS011;13688;53.154;18.136;2023-07-31T13:54:05;6.22;;;1.70;;
25868;SDS011;13688;53.154;18.136;2023-07-31T13:59:27;3.20;;;1.57;;
25868;SDS011;13688;53.154;18.136;2023-07-31T14:04:52;4.90;;;1.52;;
25868;SDS011;13688;53.154;18.136;2023-07-31T14:10:17;4.35;;;1.70;;
25868;SDS011;13688;53.154;18.136;2023-07-31T14:15:41;3.30;;;1.82;;
25868;SDS011;13688;53.154;18.136;2023-07-31T14:21:03;3.87;;;1.82;;
25868;SDS011;13688;53.154;18.136;2023-07-31T14:26:26;2.95;;;1.50;;
25868;SDS011;13688;53.154;18.136;2023-07-31T14:31:49;3.95;;;1.70;;
25868;SDS011;13688;53.154;18.136;2023-07-31T14:37:12;3.55;;;1.90;;
25868;SDS011;13688;53.154;18.136;2023-07-31T14:42:36;3.50;;;1.75;;
25868;SDS011;13688;53.154;18.136;2023-07-31T14:47:58;2.33;;;1.35;;
25868;SDS011;13688;53.154;18.136;2023-07-31T14:53:21;2.52;;;1.50;;
25868;SDS011;13688;53.154;18.136;2023-07-31T14:58:44;3.95;;;1.57;;
25868;SDS011;13688;53.154;18.136;2023-07-31T15:04:07;3.33;;;1.80;;
25868;SDS011;13688;53.154;18.136;2023-07-31T15:09:30;4.10;;;1.60;;
25868;SDS011;13688;53.154;18.136;2023-07-31T15:14:53;5.80;;;1.90;;
25868;SDS011;13688;53.154;18.136;2023-07-31T15:20:17;2.02;;;1.20;;
25868;SDS011;13688;53.154;18.136;2023-07-31T15:25:39;2.27;;;1.50;;
25868;SDS011;13688;53.154;18.136;2023-07-31T15:31:02;5.47;;;4.25;;
25868;SDS011;13688;53.154;18.136;2023-07-31T15:36:26;5.92;;;4.28;;
25868;SDS011;13688;53.154;18.136;2023-07-31T15:41:50;5.33;;;4.00;;
25868;SDS011;13688;53.154;18.136;2023-07-31T15:47:14;4.85;;;2.33;;
25868;SDS011;13688;53.154;18.136;2023-07-31T15:52:37;3.07;;;2.00;;
25868;SDS011;13688;53.154;18.136;2023-07-31T15:58:00;2.60;;;1.57;;
25868;SDS011;13688;53.154;18.136;2023-07-31T16:03:22;2.70;;;1.67;;
25868;SDS011;13688;53.154;18.136;2023-07-31T16:08:46;3.77;;;1.55;;
25868;SDS011;13688;53.154;18.136;2023-07-31T16:14:09;2.33;;;1.55;;
25868;SDS011;13688;53.154;18.136;2023-07-31T16:30:12;3.03;;;1.90;;
25868;SDS011;13688;53.154;18.136;2023-07-31T16:35:35;2.70;;;2.07;;
25868;SDS011;13688;53.154;18.136;2023-07-31T16:40:59;3.52;;;2.50;;
25868;SDS011;13688;53.154;18.136;2023-07-31T16:46:22;5.30;;;2.20;;
25868;SDS011;13688;53.154;18.136;2023-07-31T16:51:46;5.95;;;2.60;;
25868;SDS011;13688;53.154;18.136;2023-07-31T16:57:09;5.47;;;2.20;;
25868;SDS011;13688;53.154;18.136;2023-07-31T17:02:32;4.10;;;2.40;;
25868;SDS011;13688;53.154;18.136;2023-07-31T17:07:55;3.97;;;2.67;;
25868;SDS011;13688;53.154;18.136;2023-07-31T17:13:18;5.15;;;2.60;;
25868;SDS011;13688;53.154;18.136;2023-07-31T17:18:41;8.63;;;2.98;;
25868;SDS011;13688;53.154;18.136;2023-07-31T17:24:04;6.00;;;2.95;;
25868;SDS011;13688;53.154;18.136;2023-07-31T17:29:27;6.05;;;3.25;;
25868;SDS011;13688;53.154;18.136;2023-07-31T17:34:50;8.13;;;3.70;;
25868;SDS011;13688;53.154;18.136;2023-07-31T17:40:16;6.40;;;3.22;;
25868;SDS011;13688;53.154;18.136;2023-07-31T17:45:39;6.70;;;3.22;;
25868;SDS011;13688;53.154;18.136;2023-07-31T17:51:01;6.75;;;3.25;;
25868;SDS011;13688;53.154;18.136;2023-07-31T17:56:24;5.95;;;3.47;;
25868;SDS011;13688;53.154;18.136;2023-07-31T18:01:51;5.62;;;3.17;;
25868;SDS011;13688;53.154;18.136;2023-07-31T18:07:14;6.17;;;3.22;;
25868;SDS011;13688;53.154;18.136;2023-07-31T18:12:37;5.87;;;2.95;;
25868;SDS011;13688;53.154;18.136;2023-07-31T18:18:00;8.18;;;3.60;;
25868;SDS011;13688;53.154;18.136;2023-07-31T18:23:25;7.03;;;4.05;;
25868;SDS011;13688;53.154;18.136;2023-07-31T18:28:47;9.75;;;3.98;;
25868;SDS011;13688;53.154;18.136;2023-07-31T18:34:10;7.35;;;3.62;;
25868;SDS011;13688;53.154;18.136;2023-07-31T18:39:33;6.87;;;3.77;;
25868;SDS011;13688;53.154;18.136;2023-07-31T18:44:56;7.80;;;4.05;;
25868;SDS011;13688;53.154;18.136;2023-07-31T18:50:19;7.60;;;3.42;;
25868;SDS011;13688;53.154;18.136;2023-07-31T18:55:42;6.45;;;3.62;;
25868;SDS011;13688;53.154;18.136;2023-07-31T19:01:05;7.65;;;3.52;;
25868;SDS011;13688;53.154;18.136;2023-07-31T19:06:29;5.45;;;3.50;;
25868;SDS011;13688;53.154;18.136;2023-07-31T19:11:52;9.48;;;4.50;;
25868;SDS011;13688;53.154;18.136;2023-07-31T19:17:16;5.80;;;3.62;;
25868;SDS011;13688;53.154;18.136;2023-07-31T19:22:42;7.25;;;4.10;;
25868;SDS011;13688;53.154;18.136;2023-07-31T19:28:05;7.97;;;3.87;;
25868;SDS011;13688;53.154;18.136;2023-07-31T19:33:28;8.75;;;4.53;;
25868;SDS011;13688;53.154;18.136;2023-07-31T19:38:50;7.58;;;4.03;;
25868;SDS011;13688;53.154;18.136;2023-07-31T19:44:14;7.25;;;4.12;;
25868;SDS011;13688;53.154;18.136;2023-07-31T19:49:36;8.48;;;3.50;;
25868;SDS011;13688;53.154;18.136;2023-07-31T19:54:59;9.58;;;4.12;;
25868;SDS011;13688;53.154;18.136;2023-07-31T20:00:22;7.37;;;4.10;;
25868;SDS011;13688;53.154;18.136;2023-07-31T20:05:45;12.68;;;4.67;;
25868;SDS011;13688;53.154;18.136;2023-07-31T20:11:07;9.25;;;4.05;;
25868;SDS011;13688;53.154;18.136;2023-07-31T20:16:30;12.60;;;5.10;;
25868;SDS011;13688;53.154;18.136;2023-07-31T20:21:55;6.65;;;4.22;;
25868;SDS011;13688;53.154;18.136;2023-07-31T20:27:19;8.33;;;4.37;;
25868;SDS011;13688;53.154;18.136;2023-07-31T20:32:42;11.28;;;3.65;;
25868;SDS011;13688;53.154;18.136;2023-07-31T20:38:05;5.40;;;2.90;;
25868;SDS011;13688;53.154;18.136;2023-07-31T20:43:28;11.53;;;3.80;;
25868;SDS011;13688;53.154;18.136;2023-07-31T20:48:50;9.03;;;4.00;;
25868;SDS011;13688;53.154;18.136;2023-07-31T20:54:13;8.50;;;4.10;;
25868;SDS011;13688;53.154;18.136;2023-07-31T20:59:36;9.58;;;4.28;;
25868;SDS011;13688;53.154;18.136;2023-07-31T21:04:58;9.95;;;4.08;;
25868;SDS011;13688;53.154;18.136;2023-07-31T21:10:21;8.18;;;4.03;;
25868;SDS011;13688;53.154;18.136;2023-07-31T21:15:45;8.93;;;3.22;;
25868;SDS011;13688;53.154;18.136;2023-07-31T21:21:09;6.12;;;3.40;;
25868;SDS011;13688;53.154;18.136;2023-07-31T21:26:32;6.42;;;3.22;;
25868;SDS011;13688;53.154;18.136;2023-07-31T21:31:54;7.72;;;2.83;;
25868;SDS011;13688;53.154;18.136;2023-07-31T21:37:17;4.10;;;2.87;;
25868;SDS011;13688;53.154;18.136;2023-07-31T21:42:40;7.62;;;3.35;;
25868;SDS011;13688;53.154;18.136;2023-07-31T21:48:05;8.15;;;3.55;;
25868;SDS011;13688;53.154;18.136;2023-07-31T21:53:27;5.87;;;3.20;;
25868;SDS011;13688;53.154;18.136;2023-07-31T21:58:50;7.05;;;3.90;;
25868;SDS011;13688;53.154;18.136;2023-07-31T22:04:12;6.92;;;3.65;;
25868;SDS011;13688;53.154;18.136;2023-07-31T22:09:35;6.17;;;3.53;;
25868;SDS011;13688;53.154;18.136;2023-07-31T22:14:58;7.33;;;3.10;;
25868;SDS011;13688;53.154;18.136;2023-07-31T22:20:21;8.15;;;2.90;;
25868;SDS011;13688;53.154;18.136;2023-07-31T22:25:44;5.72;;;3.08;;
25868;SDS011;13688;53.154;18.136;2023-07-31T22:31:07;7.25;;;3.25;;
25868;SDS011;13688;53.154;18.136;2023-07-31T22:36:30;6.00;;;2.75;;
25868;SDS011;13688;53.154;18.136;2023-07-31T22:41:52;6.83;;;3.80;;
25868;SDS011;13688;53.154;18.136;2023-07-31T22:47:15;12.68;;;3.52;;
25868;SDS011;13688;53.154;18.136;2023-07-31T22:52:39;7.70;;;3.72;;
25868;SDS011;13688;53.154;18.136;2023-07-31T22:58:02;4.87;;;2.95;;
25868;SDS011;13688;53.154;18.136;2023-07-31T23:03:25;4.78;;;2.75;;
25868;SDS011;13688;53.154;18.136;2023-07-31T23:08:49;6.90;;;3.40;;
25868;SDS011;13688;53.154;18.136;2023-07-31T23:14:12;5.03;;;2.83;;
25868;SDS011;13688;53.154;18.136;2023-07-31T23:19:35;4.95;;;3.30;;
25868;SDS011;13688;53.154;18.136;2023-07-31T23:24:58;7.83;;;2.95;;
25868;SDS011;13688;53.154;18.136;2023-07-31T23:30:20;7.67;;;3.80;;
25868;SDS011;13688;53.154;18.136;2023-07-31T23:35:43;6.10;;;3.85;;
25868;SDS011;13688;53.154;18.136;2023-07-31T23:41:07;4.75;;;3.30;;
25868;SDS011;13688;53.154;18.136;2023-07-31T23:46:29;6.00;;;3.20;;
25868;SDS011;13688;53.154;18.136;2023-07-31T23:51:52;3.95;;;2.95;;
25868;SDS011;13688;53.154;18.136;2023-07-31T23:57:16;8.25;;;3.70;;
